Smyrna Mills, ME (04780)

1:31 AM EDT on September 24, 2014 (GMT -0400)
Micmac Environmental | Change Station
CLOSE
Current Station
Personal Weather Station
Location: Littleton, ME
Elevation: 574 ft
Nearby Weather Stations

Elev 574 ft 46.23 °N, 67.88 °W | Updated 6 seconds ago

Clear
Clear
42.5 °F
Feels Like 39 °F
N
5.0
Wind Variable Wind from WNW
Gusts 8.0 mph

Today
High -- | Low -- °F
--% Chance of Precip.
Yesterday
High -- | Low -- °F
Precip. -- in
6:22 AM 6:26 PM
Waning Crescent, 0% visible
Pressure 30.41 in
Visibility 10.0 miles
Clouds Clear
Windchill 39 °F
Dew Point 40 °F
Humidity 89%
Rainfall 0.00 in
Snow Depth Not available.
UV 0.0 out of 12
Pollen 2.10 out of 12
Ozone Good
PM2.5 Good
Flu Activity Not available.
METAR KHUL 240453Z AUTO 00000KT 10SM CLR 06/03 A3040 RMK AO2 SLP298 T00560033 401500050

More Conditions Fewer Conditions

Pressure 30.41 in
Visibility 10.0 miles
Clouds Clear
Windchill 39 °F
Dew Point 40 °F
Humidity 89%
Rainfall 0.00 in
Snow Depth Not available.
UV 0.0 out of 12
Pollen 2.10 out of 12
Ozone Good
PM2.5 Good
Flu Activity Not available.
METAR KHUL 240453Z AUTO 00000KT 10SM CLR 06/03 A3040 RMK AO2 SLP298 T00560033 401500050

More Conditions Fewer Conditions

10-Day Weather Forecast

Almanac

Astronomy

Sep. 24, 2014 Rise Set
Actual Time 6:22 AM EDT 6:26 PM EDT
Civil Twilight 5:52 AM EDT 6:56 PM EDT
Nautical Twilight 5:17 AM EDT 7:31 PM EDT
Astronomical Twilight 4:41 AM EDT 8:07 PM EDT
Moon 6:42 AM EDT 6:32 PM EDT
Length of Visible Light 13h 04m
Length of Day
12h 04m
Tomorrow will be 3m 15s shorter.
Waning Crescent, 0% of the Moon is Illuminated
Today
Waning Crescent
Sep 24
New
Oct 1
First Quarter
Oct 8
Full
Oct 15
Last Quarter

Today's Extremes

State Highs State Lows

Community

WunderPhotos

Upload Photos

1,755,891 photos uploaded!

WunderBlogs® & News

Nearby

Air Quality

  Air Quality AQ Index Pollutant
Yesterday Good
OZONE
Yesterday Good
PM2.5
Current Good
PM2.5
Current Good
OZONE
Tuesday Good
OZONE
Tuesday Good
PM2.5
Wednesday Good
OZONE
Wednesday Good
PM2.5
Thursday Good
OZONE
Thursday Good
PM2.5
Friday Good
OZONE
Friday Good
PM2.5
Saturday Good
OZONE
Saturday Good
PM2.5

Snow Depth

Station Depth Elevation
No new snow has been reported.

Earthquake Activity

City Distance Mag. Time & Date
No recent earthquake activity has been reported nearby.
Minimum magnitude displayed is 2.5.

Coastal Water Temperatures

Place Temperature
No Stations Reporting

Nearby Weather Stations